Terminal Aerodrome Forecast
Issued by NWS

Current Version | Previous Version | Graphics & Text | Print | Product List | Glossary On
Versions: 1 2 3 4 5 6 7 8 9 10 11 12 13 14
000
FTUS41 KPBZ 020520
TAFHLG
TAF
KHLG 020520Z 0206/0306 22003KT P6SM SKC
     FM020700 00000KT 4SM BR SKC
     FM021000 00000KT 2SM BR SKC
     FM021400 25005KT P6SM SCT050=

USA.gov is the U.S. government's official web portal to all federal, state and local government web resources and services.